Accueil
METAR-TAF:

METAR-TAF

Aéroports :

Andora, Italie

Capo Mele

latitude: 43-57N, longitude: 008-10E, altitude: 220 m

Observation

Le bulletin a été fait il y a 1 heure et 9 minutes, à 00:55 UTC
Vent 5 kt de sud/sud-est
Température 4°C
Humidité 87%
Pression 999 hPa
Visibilité: 4000 m
Quelques nuages à une hauteur de 1500 ft, Cumulus congestus.
Nuages fragmentés à une hauteur de 1800 ft
pluie, brume

METAR: LIMU 110055Z 16005KT 4000 RA BR FEW015TCU BKN018 04/02 Q0999 RMK OVC QUK / QUL / VIS MAR 4 KM VIS MIN 4000

Heure: 03:04 (02:04 UTC)


TAF: absent

Observations et prévisions météorologiques de plus de 4000 aéroports (messages METAR et TAF).

Les stations disponibles sont représentées par des disques jaunes et rouges sur la carte.

Passer la souris dessus pour voir le nom de la station.

Cliquer dessus pour voir les observations et prévisions météorologiques.

Pour changer de carte: cliquez sur les boutons verts avec une croix noire pour zoomer, sur le bouton vert avec un tiret pour effectuer un zoom arrière, ou sur les flèches vertes pour les cartes adjacentes.


METAR-TAF: